This is the latest recevied weather packets stored in our database for station/object AD4CG. If no packets are shown the sender has not sent any weather packets the latest 10 day(s).
| Time | Temp. | Humidity | Pressure | Rain* | Wind** | Luminosity | Snow |
|---|---|---|---|---|---|---|---|
| 1777130240 | 25.56° C | 37% | 1010.2 hPa | 0 mm | - | - | - |
| 1777129610 | 25.56° C | 33% | 1010.5 hPa | 0 mm | - | - | - |
| 1777125853 | 22.22° C | 46% | 1010.5 hPa | 0 mm | - | - | - |
| 1777123969 | 20.56° C | 56% | 1010.5 hPa | 0 mm | - | - | - |
| 1777122400 | 19.44° C | 66% | 1010.5 hPa | 0 mm | - | - | - |
| 1777117398 | 15.56° C | 92% | 1010.8 hPa | 0 mm | - | - | - |
| 1777116138 | 14.44° C | 97% | 1010.8 hPa | 0 mm | - | - | - |
| 1777115821 | 14.44° C | 96% | 1010.2 hPa | 0 mm | - | - | - |
| 1777114870 | 13.89° C | 98% | 1010.2 hPa | 0 mm | - | - | - |
| 1777114543 | 13.89° C | 100% | 1010.5 hPa | 0 mm | - | - | - |
| 1777112659 | 13.89° C | 100% | 1009.8 hPa | 0 mm | - | - | - |
| 1777112342 | 13.89° C | 100% | 1009.8 hPa | 0 mm | - | - | - |
| 1777111093 | 14.44° C | 100% | 1009.8 hPa | 0 mm | - | - | - |
| 1777109840 | 14.44° C | 100% | 1009.8 hPa | 0 mm | - | - | - |
| 1777107338 | 15° C | 100% | 1010.2 hPa | 0 mm | - | - | - |
| 1777107023 | 15° C | 100% | 1009.8 hPa | 0 mm | - | - | - |
| 1777106706 | 15° C | 100% | 1009.8 hPa | 0 mm | - | - | - |
| 1777103220 | 16.11° C | 100% | 1009.1 hPa | 0 mm | - | - | - |
| 1777100400 | 16.67° C | 100% | 1009.1 hPa | 0 mm | - | - | - |
| 1777099140 | 17.22° C | 100% | 1009.1 hPa | 0 mm | - | - | - |
| 1777098177 | 17.78° C | 99% | 1009.1 hPa | 0 mm | - | - | - |
| 1777097234 | 17.22° C | 100% | 1009.5 hPa | 0 mm | - | - | - |
| 1777094418 | 17.78° C | 94% | 1010.2 hPa | 0 mm | - | - | - |
| 1777088164 | 21.67° C | 69% | 1010.2 hPa | 0 mm | - | - | - |
| 1777087535 | 21.67° C | 66% | 1010.2 hPa | 0 mm | - | - | - |
* Rain latest hour (hover to see other rain measurements)
** Current wind speed in m/s (hover to see current wind gust speed)